createdAt,value
2023-04-16T00:00:36.241Z,5.20
2023-04-16T00:03:39.154Z,5.67
2023-04-16T00:06:41.942Z,4.78
2023-04-16T00:09:45.108Z,5.25
2023-04-16T00:12:47.599Z,5.18
2023-04-16T00:15:50.055Z,5.10
2023-04-16T00:18:53.067Z,5.03
2023-04-16T00:21:56.050Z,5.97
2023-04-16T00:24:58.430Z,6.45
2023-04-16T00:28:00.937Z,6.10
2023-04-16T00:31:03.510Z,6.45
2023-04-16T00:34:06.050Z,6.40
2023-04-16T00:37:08.498Z,6.00
2023-04-16T00:40:11.462Z,6.07
2023-04-16T00:43:22.739Z,5.43
2023-04-16T00:46:26.193Z,5.32
2023-04-16T00:49:28.976Z,5.90
2023-04-16T00:52:33.128Z,5.78
2023-04-16T00:55:35.641Z,5.82
2023-04-16T00:58:38.914Z,4.85
2023-04-16T01:01:41.556Z,4.65
2023-04-16T01:04:44.087Z,4.70
2023-04-16T01:07:46.599Z,4.85
2023-04-16T01:10:49.103Z,5.07
2023-04-16T01:13:51.575Z,5.15
2023-04-16T01:16:54.617Z,4.13
2023-04-16T01:20:00.614Z,4.63
2023-04-16T01:23:03.067Z,4.60
2023-04-16T01:26:05.529Z,5.07
2023-04-16T01:29:08.124Z,5.22
2023-04-16T01:32:11.312Z,6.80
2023-04-16T01:35:18.219Z,4.73
2023-04-16T01:38:20.708Z,5.22
2023-04-16T01:41:23.221Z,4.72
2023-04-16T01:44:25.691Z,4.65
2023-04-16T01:47:28.286Z,4.85
2023-04-16T01:50:31.163Z,4.80
2023-04-16T01:53:35.809Z,4.43
2023-04-16T01:56:39.591Z,4.00
2023-04-16T01:59:42.422Z,4.45
2023-04-16T02:02:45.538Z,5.13
2023-04-16T02:05:52.003Z,4.87
2023-04-16T02:08:55.568Z,4.30
2023-04-16T02:11:58.346Z,5.85
2023-04-16T02:15:00.970Z,5.93
2023-04-16T02:18:04.895Z,6.35
2023-04-16T02:21:08.510Z,7.03
2023-04-16T02:24:11.041Z,7.10
2023-04-16T02:27:13.611Z,7.28
2023-04-16T02:30:17.778Z,9.10
2023-04-16T02:33:20.406Z,8.88
2023-04-16T02:36:49.037Z,7.83
2023-04-16T02:39:53.322Z,5.97
2023-04-16T02:42:56.459Z,6.28
2023-04-16T02:45:59.493Z,5.95
2023-04-16T02:49:02.338Z,5.45
2023-04-16T02:52:04.869Z,5.30
2023-04-16T02:55:07.753Z,5.38
2023-04-16T02:58:10.221Z,5.07
2023-04-16T03:01:13.215Z,4.57
2023-04-16T03:04:16.012Z,4.88
2023-04-16T03:07:18.536Z,7.10
2023-04-16T03:10:21.165Z,8.05
2023-04-16T03:13:23.669Z,6.85
2023-04-16T03:16:26.166Z,7.13
2023-04-16T03:19:28.862Z,6.45
2023-04-16T03:22:31.553Z,5.87
2023-04-16T03:25:34.038Z,6.28
2023-04-16T03:28:36.537Z,6.10
2023-04-16T03:31:39.395Z,6.35
2023-04-16T03:34:41.952Z,6.13
2023-04-16T03:37:44.453Z,6.00
2023-04-16T03:40:47.352Z,5.72
2023-04-16T03:43:51.103Z,6.70
2023-04-16T03:46:53.813Z,6.35
2023-04-16T03:49:57.247Z,6.45
2023-04-16T03:52:59.983Z,6.60
2023-04-16T03:56:02.463Z,7.10
2023-04-16T03:59:05.578Z,6.85
2023-04-16T04:02:08.814Z,6.00
2023-04-16T04:05:11.456Z,5.90
2023-04-16T04:08:14.128Z,6.67
2023-04-16T04:11:17.563Z,7.55
2023-04-16T04:14:20.461Z,8.20
2023-04-16T04:17:22.859Z,8.02
2023-04-16T04:20:26.709Z,36.00
2023-04-16T04:23:29.404Z,31.17
2023-04-16T04:26:31.948Z,31.20
2023-04-16T04:29:34.543Z,18.50
2023-04-16T04:32:37.085Z,18.17
2023-04-16T04:35:39.590Z,10.13
2023-04-16T04:38:42.077Z,11.80
2023-04-16T04:41:44.790Z,9.60
2023-04-16T04:44:47.849Z,7.57
2023-04-16T04:47:50.493Z,7.80
2023-04-16T04:51:03.513Z,8.88
2023-04-16T04:54:07.226Z,8.43
2023-04-16T04:57:09.766Z,9.57
2023-04-16T05:00:12.827Z,10.43
2023-04-16T05:03:22.796Z,9.20
2023-04-16T05:06:26.357Z,9.20
2023-04-16T05:09:29.788Z,8.03
2023-04-16T05:12:32.261Z,9.18
2023-04-16T05:15:34.874Z,7.47
2023-04-16T05:18:37.374Z,8.90
2023-04-16T05:21:40.051Z,7.97
2023-04-16T05:24:42.537Z,7.07
2023-04-16T05:27:45.012Z,6.75
2023-04-16T05:30:47.590Z,7.95
2023-04-16T05:33:50.020Z,7.13
2023-04-16T05:36:52.467Z,8.18
2023-04-16T05:39:54.989Z,6.83
2023-04-16T05:42:57.701Z,7.82
2023-04-16T05:46:00.439Z,7.80
2023-04-16T05:49:02.950Z,7.90
2023-04-16T05:52:06.266Z,7.13
2023-04-16T05:55:09.079Z,7.47
2023-04-16T05:58:11.451Z,8.73
2023-04-16T06:01:14.012Z,8.38
2023-04-16T06:04:16.760Z,8.20
2023-04-16T06:07:19.290Z,8.40
2023-04-16T06:10:21.939Z,5.50
2023-04-16T06:13:25.041Z,4.68
2023-04-16T06:16:27.666Z,4.22
2023-04-16T06:19:30.340Z,2.40
2023-04-16T06:22:32.879Z,2.63
2023-04-16T06:25:35.385Z,3.67
2023-04-16T06:28:38.044Z,2.20
2023-04-16T06:31:41.067Z,2.40
2023-04-16T06:34:43.556Z,2.88
2023-04-16T06:37:46.755Z,3.00
2023-04-16T06:40:49.832Z,2.80
2023-04-16T06:43:52.704Z,2.63
2023-04-16T06:46:55.332Z,2.47
2023-04-16T06:49:57.822Z,2.42
2023-04-16T06:53:00.365Z,2.83
2023-04-16T06:56:02.847Z,2.93
2023-04-16T06:59:06.279Z,2.65
2023-04-16T07:02:11.763Z,2.80
2023-04-16T07:05:14.234Z,2.80
2023-04-16T07:08:16.823Z,2.90
2023-04-16T07:11:19.433Z,3.03
2023-04-16T07:14:21.983Z,2.63
2023-04-16T07:17:24.593Z,2.90
2023-04-16T07:20:27.233Z,2.20
2023-04-16T07:23:29.796Z,2.53
2023-04-16T07:26:32.448Z,2.50
2023-04-16T07:29:34.925Z,2.47
2023-04-16T07:32:37.927Z,2.28
2023-04-16T07:35:41.040Z,2.15
2023-04-16T07:38:44.394Z,2.35
2023-04-16T07:41:47.171Z,2.43
2023-04-16T07:44:49.598Z,2.13
2023-04-16T07:47:52.136Z,2.05
2023-04-16T07:50:54.659Z,2.40
2023-04-16T07:53:57.420Z,1.88
2023-04-16T07:56:59.859Z,2.30
2023-04-16T08:00:04.954Z,2.75
2023-04-16T08:03:16.314Z,2.30
2023-04-16T08:06:18.917Z,2.10
2023-04-16T08:09:22.870Z,2.33
2023-04-16T08:12:25.450Z,2.83
2023-04-16T08:15:27.934Z,2.63
2023-04-16T08:18:31.113Z,2.95
2023-04-16T08:21:33.966Z,2.42
2023-04-16T08:24:36.398Z,2.47
2023-04-16T08:27:38.840Z,2.70
2023-04-16T08:30:41.478Z,2.25
2023-04-16T08:33:43.956Z,2.10
2023-04-16T08:36:46.549Z,2.15
2023-04-16T08:39:49.292Z,2.10
2023-04-16T08:42:55.899Z,2.80
2023-04-16T08:45:59.201Z,2.17
2023-04-16T08:49:02.749Z,2.70
2023-04-16T08:52:06.725Z,2.15
2023-04-16T08:55:14.453Z,2.00
2023-04-16T08:58:21.889Z,1.13
2023-04-16T09:01:26.777Z,2.53
2023-04-16T09:04:29.999Z,1.30
2023-04-16T09:07:32.635Z,2.50
2023-04-16T09:10:35.063Z,2.22
2023-04-16T09:13:38.272Z,1.60
2023-04-16T09:16:41.815Z,1.02
2023-04-16T09:19:48.044Z,1.10
2023-04-16T09:22:50.802Z,1.15
2023-04-16T09:25:53.288Z,1.60
2023-04-16T09:28:55.822Z,1.17
2023-04-16T09:32:03.039Z,1.02
2023-04-16T09:35:05.930Z,1.88
2023-04-16T09:38:08.376Z,1.20
2023-04-16T09:41:10.919Z,1.52
2023-04-16T09:44:13.492Z,1.10
2023-04-16T09:47:16.015Z,1.33
2023-04-16T09:50:19.936Z,0.73
2023-04-16T09:53:26.972Z,1.27
2023-04-16T09:56:30.473Z,1.23
2023-04-16T09:59:35.851Z,1.30
2023-04-16T10:02:42.698Z,1.33
2023-04-16T10:05:45.417Z,1.52
2023-04-16T10:08:57.138Z,1.33
2023-04-16T10:12:00.356Z,1.10
2023-04-16T10:15:02.846Z,1.60
2023-04-16T10:18:06.762Z,1.15
2023-04-16T10:21:12.775Z,1.20
2023-04-16T10:24:17.501Z,0.98
2023-04-16T10:27:20.783Z,0.95
2023-04-16T10:30:23.478Z,0.87
2023-04-16T10:33:28.200Z,1.25
2023-04-16T10:36:31.113Z,1.52
2023-04-16T10:39:37.507Z,3.08
2023-04-16T10:42:40.314Z,1.73
2023-04-16T10:45:42.721Z,1.33
2023-04-16T10:51:57.848Z,2.00
2023-04-16T10:55:01.311Z,1.50
2023-04-16T10:58:30.307Z,1.13
2023-04-16T11:01:36.346Z,1.80
2023-04-16T11:04:40.499Z,2.10
2023-04-16T11:07:49.400Z,2.85
2023-04-16T11:10:52.919Z,2.10
2023-04-16T11:13:57.063Z,1.88
2023-04-16T11:17:03.732Z,2.10
2023-04-16T11:20:20.063Z,1.65
2023-04-16T11:23:23.446Z,1.48
2023-04-16T11:26:28.897Z,0.80
2023-04-16T11:29:31.348Z,0.85
2023-04-16T11:32:38.061Z,0.90
2023-04-16T11:35:41.453Z,0.60
2023-04-16T11:38:44.524Z,0.80
2023-04-16T11:41:50.571Z,0.70
2023-04-16T11:44:54.615Z,0.90
2023-04-16T11:47:58.036Z,0.70
2023-04-16T11:51:01.101Z,0.80
2023-04-16T11:54:03.563Z,0.70
2023-04-16T11:57:06.263Z,1.00
2023-04-16T12:00:15.365Z,0.90
2023-04-16T12:03:18.150Z,1.00
2023-04-16T12:06:21.875Z,1.13
2023-04-16T12:09:26.308Z,0.75
2023-04-16T12:12:31.415Z,1.10
2023-04-16T12:15:47.576Z,0.90
2023-04-16T12:19:01.614Z,0.60
2023-04-16T12:22:03.996Z,1.00
2023-04-16T12:25:15.035Z,2.30
2023-04-16T12:28:34.446Z,2.10
2023-04-16T12:31:38.247Z,1.00
2023-04-16T12:34:51.236Z,1.40
2023-04-16T12:37:53.707Z,1.30
2023-04-16T12:40:57.789Z,1.05
2023-04-16T12:44:14.736Z,1.30
2023-04-16T12:47:17.227Z,2.03
2023-04-16T12:50:19.770Z,1.37
2023-04-16T12:53:22.385Z,1.58
2023-04-16T12:56:24.888Z,1.00
2023-04-16T12:59:27.708Z,1.45
2023-04-16T13:02:30.450Z,1.80
2023-04-16T13:05:33.462Z,1.80
2023-04-16T13:08:37.466Z,1.17
2023-04-16T13:11:39.933Z,1.55
2023-04-16T13:14:44.002Z,1.65
2023-04-16T13:17:47.612Z,1.15
2023-04-16T13:20:50.327Z,1.30
2023-04-16T13:23:54.010Z,1.02
2023-04-16T13:26:56.870Z,1.10
2023-04-16T13:29:59.910Z,1.30
2023-04-16T13:33:02.481Z,1.20
2023-04-16T13:36:05.330Z,0.93
2023-04-16T13:39:11.514Z,0.63
2023-04-16T13:42:14.456Z,1.30
2023-04-16T13:45:16.955Z,1.00
2023-04-16T13:48:19.530Z,1.20
2023-04-16T13:51:22.826Z,1.30
2023-04-16T13:54:25.444Z,1.67
2023-04-16T13:57:31.194Z,1.20
2023-04-16T14:00:33.860Z,0.98
2023-04-16T14:03:38.562Z,1.27
2023-04-16T14:06:41.147Z,1.00
2023-04-16T14:09:44.050Z,0.90
2023-04-16T14:12:47.140Z,0.70
2023-04-16T14:15:49.989Z,0.85
2023-04-16T14:18:52.433Z,0.88
2023-04-16T14:21:55.035Z,1.57
2023-04-16T14:24:57.449Z,1.20
2023-04-16T14:28:00.977Z,0.63
2023-04-16T14:31:03.622Z,2.30
2023-04-16T14:34:06.471Z,2.10
2023-04-16T14:37:09.183Z,2.03
2023-04-16T14:40:12.595Z,1.13
2023-04-16T14:43:15.352Z,1.67
2023-04-16T14:46:17.979Z,3.03
2023-04-16T14:49:20.783Z,2.63
2023-04-16T14:52:24.201Z,1.17
2023-04-16T14:55:26.690Z,1.05
2023-04-16T14:58:29.142Z,2.42
2023-04-16T15:01:32.258Z,1.60
2023-04-16T15:04:35.339Z,1.27
2023-04-16T15:07:37.821Z,1.00
2023-04-16T15:10:42.521Z,0.85
2023-04-16T15:13:45.669Z,0.80
2023-04-16T15:16:48.652Z,1.17
2023-04-16T15:19:52.266Z,2.67
2023-04-16T15:22:54.942Z,4.03
2023-04-16T15:25:58.078Z,6.10
2023-04-16T15:29:00.931Z,9.07
2023-04-16T15:32:03.452Z,12.13
2023-04-16T15:35:06.521Z,16.50
2023-04-16T15:38:09.272Z,14.90
2023-04-16T15:41:12.094Z,9.90
2023-04-16T15:44:14.677Z,6.07
2023-04-16T15:47:17.346Z,2.92
2023-04-16T15:50:20.323Z,1.20
2023-04-16T15:53:23.021Z,5.73
2023-04-16T15:56:25.923Z,2.08
2023-04-16T15:59:28.822Z,7.22
2023-04-16T16:02:31.563Z,14.63
2023-04-16T16:05:34.569Z,4.90
2023-04-16T16:08:38.427Z,7.07
2023-04-16T16:11:41.713Z,3.95
2023-04-16T16:14:44.672Z,4.45
2023-04-16T16:17:47.268Z,2.78
2023-04-16T16:20:49.999Z,1.90
2023-04-16T16:23:52.400Z,3.10
2023-04-16T16:26:54.817Z,2.35
2023-04-16T16:29:57.564Z,8.38
2023-04-16T16:33:00.583Z,1.33
2023-04-16T16:36:03.894Z,2.15
2023-04-16T16:39:06.766Z,1.13
2023-04-16T16:42:09.396Z,1.10
2023-04-16T16:45:12.494Z,1.95
2023-04-16T16:48:15.335Z,1.98
2023-04-16T16:51:19.013Z,1.30
2023-04-16T16:54:21.930Z,4.03
2023-04-16T16:57:25.043Z,3.78
2023-04-16T17:00:28.236Z,4.63
2023-04-16T17:03:31.006Z,6.03
2023-04-16T17:06:33.861Z,3.38
2023-04-16T17:09:38.623Z,1.93
2023-04-16T17:12:41.080Z,2.78
2023-04-16T17:15:44.322Z,2.35
2023-04-16T17:18:47.304Z,1.90
2023-04-16T17:21:50.699Z,2.60
2023-04-16T17:24:53.500Z,2.17
2023-04-16T17:27:56.630Z,1.48
2023-04-16T17:31:00.257Z,15.23
2023-04-16T17:34:05.876Z,14.50
2023-04-16T17:37:08.773Z,2.42
2023-04-16T17:40:12.740Z,3.10
2023-04-16T17:43:15.936Z,5.30
2023-04-16T17:46:18.732Z,3.83
2023-04-16T17:49:21.564Z,2.58
2023-04-16T17:52:24.163Z,2.00
2023-04-16T17:55:27.032Z,3.47
2023-04-16T17:58:32.952Z,3.08
2023-04-16T18:01:36.097Z,1.70
2023-04-16T18:04:39.026Z,2.10
2023-04-16T18:07:43.695Z,1.83
2023-04-16T18:10:46.472Z,2.33
2023-04-16T18:13:49.619Z,2.08
2023-04-16T18:16:52.396Z,2.83
2023-04-16T18:19:56.256Z,4.82
2023-04-16T18:22:58.675Z,6.13
2023-04-16T18:26:01.589Z,6.83
2023-04-16T18:29:05.535Z,3.90
2023-04-16T18:32:11.837Z,8.27
2023-04-16T18:35:14.792Z,3.63
2023-04-16T18:38:17.725Z,1.50
2023-04-16T18:41:20.954Z,2.47
2023-04-16T18:44:24.394Z,0.85
2023-04-16T18:47:27.270Z,3.78
2023-04-16T18:50:30.178Z,1.48
2023-04-16T18:53:33.045Z,1.10
2023-04-16T18:56:35.732Z,1.77
2023-04-16T18:59:38.480Z,1.50
2023-04-16T19:02:42.496Z,1.70
2023-04-16T19:05:45.659Z,1.60
2023-04-16T19:08:48.971Z,1.08
2023-04-16T19:11:51.605Z,0.90
2023-04-16T19:14:54.495Z,0.80
2023-04-16T19:17:57.365Z,1.67
2023-04-16T19:21:01.559Z,1.00
2023-04-16T19:24:04.429Z,1.38
2023-04-16T19:27:07.237Z,2.10
2023-04-16T19:30:10.311Z,1.10
2023-04-16T19:33:13.525Z,1.10
2023-04-16T19:36:16.577Z,0.98
2023-04-16T19:39:19.729Z,1.25
2023-04-16T19:42:22.715Z,1.00
2023-04-16T19:45:27.191Z,1.00
2023-04-16T19:48:30.779Z,1.52
2023-04-16T19:51:33.783Z,5.05
2023-04-16T19:54:37.761Z,9.55
2023-04-16T19:57:40.532Z,2.83
2023-04-16T20:00:43.431Z,3.63
2023-04-16T20:03:47.440Z,2.03
2023-04-16T20:06:50.438Z,1.40
2023-04-16T20:09:53.239Z,1.75
2023-04-16T20:12:56.070Z,1.30
2023-04-16T20:15:58.699Z,1.20
2023-04-16T20:19:04.155Z,1.40
2023-04-16T20:22:11.342Z,1.80
2023-04-16T20:25:14.508Z,2.55
2023-04-16T20:28:21.302Z,1.70
2023-04-16T20:31:24.250Z,1.27
2023-04-16T20:34:27.811Z,1.70
2023-04-16T20:37:31.302Z,1.35
2023-04-16T20:40:34.104Z,1.40
2023-04-16T20:43:43.959Z,1.57
2023-04-16T20:46:49.681Z,1.15
2023-04-16T20:49:52.921Z,1.92
2023-04-16T20:52:55.949Z,1.88
2023-04-16T20:56:02.778Z,2.33
2023-04-16T20:59:05.257Z,1.80
2023-04-16T21:02:08.002Z,1.83
2023-04-16T21:05:14.606Z,2.10
2023-04-16T21:08:17.990Z,2.35
2023-04-16T21:11:20.786Z,1.92
2023-04-16T21:14:23.225Z,2.40
2023-04-16T21:17:25.753Z,2.63
2023-04-16T21:20:30.375Z,2.17
2023-04-16T21:23:33.024Z,3.05
2023-04-16T21:26:35.502Z,2.40
2023-04-16T21:29:38.145Z,2.53
2023-04-16T21:32:40.912Z,2.45
2023-04-16T21:35:43.438Z,2.67
2023-04-16T21:38:45.957Z,2.40
2023-04-16T21:41:48.843Z,2.30
2023-04-16T21:44:51.265Z,2.43
2023-04-16T21:47:53.787Z,2.33
2023-04-16T21:51:06.190Z,3.13
2023-04-16T21:54:08.748Z,3.75
2023-04-16T21:57:11.721Z,3.03
2023-04-16T22:00:14.545Z,2.57
2023-04-16T22:03:18.495Z,2.00
2023-04-16T22:06:21.175Z,1.88
2023-04-16T22:09:26.382Z,2.00
2023-04-16T22:12:28.894Z,2.33
2023-04-16T22:15:31.321Z,2.27
2023-04-16T22:18:34.104Z,2.28
2023-04-16T22:21:36.780Z,2.10
2023-04-16T22:24:39.286Z,2.28
2023-04-16T22:27:41.820Z,2.17
2023-04-16T22:30:44.447Z,2.40
2023-04-16T22:33:46.891Z,1.83
2023-04-16T22:36:49.370Z,2.47
2023-04-16T22:39:51.808Z,2.25
2023-04-16T22:42:54.318Z,3.10
2023-04-16T22:46:04.565Z,1.90
2023-04-16T22:49:07.221Z,2.13
2023-04-16T22:52:10.002Z,2.58
2023-04-16T22:55:12.562Z,2.45
2023-04-16T22:58:15.030Z,2.83
2023-04-16T23:01:17.602Z,2.60
2023-04-16T23:04:20.422Z,3.40
2023-04-16T23:07:22.964Z,2.60
2023-04-16T23:10:25.573Z,2.90
2023-04-16T23:13:28.010Z,3.20
2023-04-16T23:16:30.852Z,3.17
2023-04-16T23:19:33.379Z,3.95
2023-04-16T23:22:36.120Z,3.17
2023-04-16T23:25:41.236Z,3.53
2023-04-16T23:28:43.696Z,2.83
2023-04-16T23:31:46.420Z,3.20
2023-04-16T23:34:49.034Z,2.90
2023-04-16T23:37:51.631Z,3.25
2023-04-16T23:40:54.048Z,3.20
2023-04-16T23:43:57.095Z,3.35
2023-04-16T23:46:59.852Z,2.87
2023-04-16T23:50:02.356Z,3.65
2023-04-16T23:53:05.151Z,2.10
2023-04-16T23:56:08.075Z,3.33
2023-04-16T23:59:11.157Z,2.35
